sensor_id;sensor_type;location;lat;lon;timestamp;P1;durP1;ratioP1;P2;durP2;ratioP2
56045;SDS011;41913;51.030;3.706;2023-09-30T00:00:26;1.55;;;1.45;;
56045;SDS011;41913;51.030;3.706;2023-09-30T00:02:52;2.13;;;1.85;;
56045;SDS011;41913;51.030;3.706;2023-09-30T00:05:18;3.25;;;1.67;;
56045;SDS011;41913;51.030;3.706;2023-09-30T00:07:46;2.22;;;2.13;;
56045;SDS011;41913;51.030;3.706;2023-09-30T00:10:12;2.88;;;1.98;;
56045;SDS011;41913;51.030;3.706;2023-09-30T00:12:39;3.13;;;2.00;;
56045;SDS011;41913;51.030;3.706;2023-09-30T00:15:06;2.45;;;2.13;;
56045;SDS011;41913;51.030;3.706;2023-09-30T00:17:32;2.90;;;2.05;;
56045;SDS011;41913;51.030;3.706;2023-09-30T00:19:58;2.55;;;2.20;;
56045;SDS011;41913;51.030;3.706;2023-09-30T00:22:24;3.22;;;1.85;;
56045;SDS011;41913;51.030;3.706;2023-09-30T00:24:50;2.40;;;1.90;;
56045;SDS011;41913;51.030;3.706;2023-09-30T00:27:16;2.53;;;2.08;;
56045;SDS011;41913;51.030;3.706;2023-09-30T00:29:41;3.53;;;2.17;;
56045;SDS011;41913;51.030;3.706;2023-09-30T00:32:07;3.55;;;2.20;;
56045;SDS011;41913;51.030;3.706;2023-09-30T00:34:34;2.72;;;1.90;;
56045;SDS011;41913;51.030;3.706;2023-09-30T00:37:00;3.78;;;2.63;;
56045;SDS011;41913;51.030;3.706;2023-09-30T00:39:26;2.42;;;1.73;;
56045;SDS011;41913;51.030;3.706;2023-09-30T00:41:59;3.80;;;2.35;;
56045;SDS011;41913;51.030;3.706;2023-09-30T00:44:25;3.88;;;2.05;;
56045;SDS011;41913;51.030;3.706;2023-09-30T00:46:51;3.42;;;2.05;;
56045;SDS011;41913;51.030;3.706;2023-09-30T00:49:18;2.58;;;2.20;;
56045;SDS011;41913;51.030;3.706;2023-09-30T00:51:45;4.25;;;2.67;;
56045;SDS011;41913;51.030;3.706;2023-09-30T00:54:12;2.22;;;2.10;;
56045;SDS011;41913;51.030;3.706;2023-09-30T00:56:41;3.17;;;2.33;;
56045;SDS011;41913;51.030;3.706;2023-09-30T00:59:13;3.83;;;2.72;;
56045;SDS011;41913;51.030;3.706;2023-09-30T01:01:42;3.80;;;1.98;;
56045;SDS011;41913;51.030;3.706;2023-09-30T01:04:13;2.38;;;1.90;;
56045;SDS011;41913;51.030;3.706;2023-09-30T01:06:40;3.50;;;2.25;;
56045;SDS011;41913;51.030;3.706;2023-09-30T01:09:07;4.60;;;2.20;;
56045;SDS011;41913;51.030;3.706;2023-09-30T01:11:33;2.50;;;2.00;;
56045;SDS011;41913;51.030;3.706;2023-09-30T01:13:59;3.25;;;2.65;;
56045;SDS011;41913;51.030;3.706;2023-09-30T01:16:25;3.83;;;2.45;;
56045;SDS011;41913;51.030;3.706;2023-09-30T01:18:51;2.15;;;1.92;;
56045;SDS011;41913;51.030;3.706;2023-09-30T01:21:16;3.53;;;2.08;;
56045;SDS011;41913;51.030;3.706;2023-09-30T01:23:43;3.67;;;1.90;;
56045;SDS011;41913;51.030;3.706;2023-09-30T01:26:12;2.10;;;2.00;;
56045;SDS011;41913;51.030;3.706;2023-09-30T01:28:38;2.63;;;2.20;;
56045;SDS011;41913;51.030;3.706;2023-09-30T01:31:04;1.60;;;1.50;;
56045;SDS011;41913;51.030;3.706;2023-09-30T01:33:31;2.28;;;2.05;;
56045;SDS011;41913;51.030;3.706;2023-09-30T01:35:58;3.40;;;2.22;;
56045;SDS011;41913;51.030;3.706;2023-09-30T01:38:24;2.45;;;2.25;;
56045;SDS011;41913;51.030;3.706;2023-09-30T01:40:51;2.25;;;2.05;;
56045;SDS011;41913;51.030;3.706;2023-09-30T01:43:17;2.22;;;2.00;;
56045;SDS011;41913;51.030;3.706;2023-09-30T01:45:43;3.55;;;2.67;;
56045;SDS011;41913;51.030;3.706;2023-09-30T01:48:12;3.33;;;1.77;;
56045;SDS011;41913;51.030;3.706;2023-09-30T01:50:38;3.88;;;2.72;;
56045;SDS011;41913;51.030;3.706;2023-09-30T01:53:04;2.65;;;1.88;;
56045;SDS011;41913;51.030;3.706;2023-09-30T01:55:34;3.90;;;2.00;;
56045;SDS011;41913;51.030;3.706;2023-09-30T01:58:03;4.22;;;1.90;;
56045;SDS011;41913;51.030;3.706;2023-09-30T02:00:30;3.33;;;2.88;;
56045;SDS011;41913;51.030;3.706;2023-09-30T02:02:56;3.60;;;2.10;;
56045;SDS011;41913;51.030;3.706;2023-09-30T02:05:22;3.38;;;2.83;;
56045;SDS011;41913;51.030;3.706;2023-09-30T02:07:49;3.85;;;2.63;;
56045;SDS011;41913;51.030;3.706;2023-09-30T02:10:16;4.60;;;2.50;;
56045;SDS011;41913;51.030;3.706;2023-09-30T02:12:43;3.15;;;2.08;;
56045;SDS011;41913;51.030;3.706;2023-09-30T02:15:12;4.03;;;2.25;;
56045;SDS011;41913;51.030;3.706;2023-09-30T02:17:39;3.63;;;2.38;;
56045;SDS011;41913;51.030;3.706;2023-09-30T02:20:05;4.35;;;2.47;;
56045;SDS011;41913;51.030;3.706;2023-09-30T02:22:40;3.40;;;2.10;;
56045;SDS011;41913;51.030;3.706;2023-09-30T02:25:07;2.60;;;2.30;;
56045;SDS011;41913;51.030;3.706;2023-09-30T02:27:33;3.00;;;2.63;;
56045;SDS011;41913;51.030;3.706;2023-09-30T02:29:59;3.30;;;2.60;;
56045;SDS011;41913;51.030;3.706;2023-09-30T02:32:25;4.13;;;2.35;;
56045;SDS011;41913;51.030;3.706;2023-09-30T02:34:50;3.20;;;2.28;;
56045;SDS011;41913;51.030;3.706;2023-09-30T02:37:16;3.08;;;2.00;;
56045;SDS011;41913;51.030;3.706;2023-09-30T02:39:43;4.07;;;2.03;;
56045;SDS011;41913;51.030;3.706;2023-09-30T02:42:09;7.93;;;2.47;;
56045;SDS011;41913;51.030;3.706;2023-09-30T02:44:35;2.20;;;2.10;;
56045;SDS011;41913;51.030;3.706;2023-09-30T02:47:01;2.90;;;2.33;;
56045;SDS011;41913;51.030;3.706;2023-09-30T02:49:27;3.22;;;2.47;;
56045;SDS011;41913;51.030;3.706;2023-09-30T02:51:52;4.07;;;2.28;;
56045;SDS011;41913;51.030;3.706;2023-09-30T02:54:18;2.17;;;1.88;;
56045;SDS011;41913;51.030;3.706;2023-09-30T02:56:44;2.95;;;2.25;;
56045;SDS011;41913;51.030;3.706;2023-09-30T02:59:11;3.40;;;2.13;;
56045;SDS011;41913;51.030;3.706;2023-09-30T03:01:38;3.83;;;2.15;;
56045;SDS011;41913;51.030;3.706;2023-09-30T03:04:05;2.35;;;2.08;;
56045;SDS011;41913;51.030;3.706;2023-09-30T03:06:32;3.28;;;2.17;;
56045;SDS011;41913;51.030;3.706;2023-09-30T03:09:03;3.50;;;2.25;;
56045;SDS011;41913;51.030;3.706;2023-09-30T03:11:29;2.08;;;1.98;;
56045;SDS011;41913;51.030;3.706;2023-09-30T03:13:56;3.40;;;2.47;;
56045;SDS011;41913;51.030;3.706;2023-09-30T03:16:23;3.63;;;2.08;;
56045;SDS011;41913;51.030;3.706;2023-09-30T03:18:49;5.38;;;2.30;;
56045;SDS011;41913;51.030;3.706;2023-09-30T03:21:16;2.72;;;2.28;;
56045;SDS011;41913;51.030;3.706;2023-09-30T03:23:42;4.35;;;2.30;;
56045;SDS011;41913;51.030;3.706;2023-09-30T03:26:09;3.50;;;2.00;;
56045;SDS011;41913;51.030;3.706;2023-09-30T03:28:38;5.25;;;2.33;;
56045;SDS011;41913;51.030;3.706;2023-09-30T03:31:04;3.88;;;2.50;;
56045;SDS011;41913;51.030;3.706;2023-09-30T03:33:32;4.30;;;2.47;;
56045;SDS011;41913;51.030;3.706;2023-09-30T03:35:59;3.33;;;2.28;;
56045;SDS011;41913;51.030;3.706;2023-09-30T03:38:26;3.72;;;2.28;;
56045;SDS011;41913;51.030;3.706;2023-09-30T03:40:51;2.58;;;2.38;;
56045;SDS011;41913;51.030;3.706;2023-09-30T03:43:20;2.83;;;2.50;;
56045;SDS011;41913;51.030;3.706;2023-09-30T03:45:46;3.38;;;1.80;;
56045;SDS011;41913;51.030;3.706;2023-09-30T03:48:12;3.67;;;2.40;;
56045;SDS011;41913;51.030;3.706;2023-09-30T03:50:38;2.53;;;2.33;;
56045;SDS011;41913;51.030;3.706;2023-09-30T03:53:04;3.25;;;2.05;;
56045;SDS011;41913;51.030;3.706;2023-09-30T03:55:32;4.60;;;2.58;;
56045;SDS011;41913;51.030;3.706;2023-09-30T03:57:58;2.78;;;2.05;;
56045;SDS011;41913;51.030;3.706;2023-09-30T04:00:25;5.57;;;2.10;;
56045;SDS011;41913;51.030;3.706;2023-09-30T04:02:51;9.02;;;2.85;;
56045;SDS011;41913;51.030;3.706;2023-09-30T04:05:23;4.50;;;2.25;;
56045;SDS011;41913;51.030;3.706;2023-09-30T04:07:54;5.22;;;2.85;;
56045;SDS011;41913;51.030;3.706;2023-09-30T04:10:20;3.10;;;2.40;;
56045;SDS011;41913;51.030;3.706;2023-09-30T04:12:47;4.97;;;2.30;;
56045;SDS011;41913;51.030;3.706;2023-09-30T04:15:13;2.92;;;2.60;;
56045;SDS011;41913;51.030;3.706;2023-09-30T04:17:41;3.30;;;1.77;;
56045;SDS011;41913;51.030;3.706;2023-09-30T04:20:07;4.10;;;2.05;;
56045;SDS011;41913;51.030;3.706;2023-09-30T04:22:36;2.70;;;2.42;;
56045;SDS011;41913;51.030;3.706;2023-09-30T04:25:02;4.40;;;2.05;;
56045;SDS011;41913;51.030;3.706;2023-09-30T04:27:33;2.87;;;1.60;;
56045;SDS011;41913;51.030;3.706;2023-09-30T04:29:59;4.68;;;2.92;;
56045;SDS011;41913;51.030;3.706;2023-09-30T04:32:25;4.15;;;2.40;;
56045;SDS011;41913;51.030;3.706;2023-09-30T04:34:53;4.68;;;2.63;;
56045;SDS011;41913;51.030;3.706;2023-09-30T04:37:18;5.32;;;2.95;;
56045;SDS011;41913;51.030;3.706;2023-09-30T04:39:44;2.28;;;1.67;;
56045;SDS011;41913;51.030;3.706;2023-09-30T04:42:10;2.88;;;1.77;;
56045;SDS011;41913;51.030;3.706;2023-09-30T04:44:37;5.13;;;2.28;;
56045;SDS011;41913;51.030;3.706;2023-09-30T04:47:03;4.68;;;2.25;;
56045;SDS011;41913;51.030;3.706;2023-09-30T04:49:29;5.78;;;2.30;;
56045;SDS011;41913;51.030;3.706;2023-09-30T04:51:56;2.85;;;2.22;;
56045;SDS011;41913;51.030;3.706;2023-09-30T04:54:21;4.10;;;2.47;;
56045;SDS011;41913;51.030;3.706;2023-09-30T04:56:47;4.20;;;2.67;;
56045;SDS011;41913;51.030;3.706;2023-09-30T04:59:13;7.47;;;2.80;;
56045;SDS011;41913;51.030;3.706;2023-09-30T05:01:39;6.25;;;2.83;;
56045;SDS011;41913;51.030;3.706;2023-09-30T05:04:05;3.72;;;2.47;;
56045;SDS011;41913;51.030;3.706;2023-09-30T05:06:31;4.35;;;2.33;;
56045;SDS011;41913;51.030;3.706;2023-09-30T05:08:58;5.28;;;2.05;;
56045;SDS011;41913;51.030;3.706;2023-09-30T05:11:25;2.55;;;2.20;;
56045;SDS011;41913;51.030;3.706;2023-09-30T05:13:50;6.82;;;3.28;;
56045;SDS011;41913;51.030;3.706;2023-09-30T05:16:17;2.88;;;2.55;;
56045;SDS011;41913;51.030;3.706;2023-09-30T05:18:43;2.40;;;2.20;;
56045;SDS011;41913;51.030;3.706;2023-09-30T05:21:09;4.20;;;1.77;;
56045;SDS011;41913;51.030;3.706;2023-09-30T05:23:35;3.97;;;2.55;;
56045;SDS011;41913;51.030;3.706;2023-09-30T05:26:03;4.68;;;2.65;;
56045;SDS011;41913;51.030;3.706;2023-09-30T05:28:29;2.42;;;1.73;;
56045;SDS011;41913;51.030;3.706;2023-09-30T05:30:54;4.28;;;2.92;;
56045;SDS011;41913;51.030;3.706;2023-09-30T05:33:21;6.18;;;2.10;;
56045;SDS011;41913;51.030;3.706;2023-09-30T05:35:47;5.18;;;2.30;;
56045;SDS011;41913;51.030;3.706;2023-09-30T05:38:13;7.55;;;2.83;;
56045;SDS011;41913;51.030;3.706;2023-09-30T05:40:39;5.55;;;2.50;;
56045;SDS011;41913;51.030;3.706;2023-09-30T05:43:06;6.20;;;2.50;;
56045;SDS011;41913;51.030;3.706;2023-09-30T05:45:32;5.88;;;3.00;;
56045;SDS011;41913;51.030;3.706;2023-09-30T05:48:00;3.28;;;2.10;;
56045;SDS011;41913;51.030;3.706;2023-09-30T05:50:33;5.93;;;3.42;;
56045;SDS011;41913;51.030;3.706;2023-09-30T05:53:01;7.00;;;2.55;;
56045;SDS011;41913;51.030;3.706;2023-09-30T05:55:29;6.22;;;3.47;;
56045;SDS011;41913;51.030;3.706;2023-09-30T05:57:55;5.05;;;3.03;;
56045;SDS011;41913;51.030;3.706;2023-09-30T06:00:21;13.85;;;5.88;;
56045;SDS011;41913;51.030;3.706;2023-09-30T06:03:00;14.05;;;6.50;;
56045;SDS011;41913;51.030;3.706;2023-09-30T06:05:27;8.90;;;4.53;;
56045;SDS011;41913;51.030;3.706;2023-09-30T06:07:55;7.72;;;3.40;;
56045;SDS011;41913;51.030;3.706;2023-09-30T06:10:21;6.57;;;2.90;;
56045;SDS011;41913;51.030;3.706;2023-09-30T06:12:48;10.95;;;4.05;;
56045;SDS011;41913;51.030;3.706;2023-09-30T06:15:20;7.05;;;3.20;;
56045;SDS011;41913;51.030;3.706;2023-09-30T06:17:54;6.13;;;2.88;;
56045;SDS011;41913;51.030;3.706;2023-09-30T06:20:21;6.68;;;2.92;;
56045;SDS011;41913;51.030;3.706;2023-09-30T06:22:57;12.43;;;3.85;;
56045;SDS011;41913;51.030;3.706;2023-09-30T06:25:23;4.28;;;2.83;;
56045;SDS011;41913;51.030;3.706;2023-09-30T06:27:49;9.20;;;3.80;;
56045;SDS011;41913;51.030;3.706;2023-09-30T06:30:18;12.05;;;4.63;;
56045;SDS011;41913;51.030;3.706;2023-09-30T06:32:46;12.57;;;5.70;;
56045;SDS011;41913;51.030;3.706;2023-09-30T06:35:12;9.85;;;5.05;;
56045;SDS011;41913;51.030;3.706;2023-09-30T06:37:41;13.48;;;4.95;;
56045;SDS011;41913;51.030;3.706;2023-09-30T06:40:10;15.30;;;6.22;;
56045;SDS011;41913;51.030;3.706;2023-09-30T06:42:37;16.23;;;6.18;;
56045;SDS011;41913;51.030;3.706;2023-09-30T06:45:05;21.85;;;7.07;;
56045;SDS011;41913;51.030;3.706;2023-09-30T06:47:32;15.40;;;7.30;;
56045;SDS011;41913;51.030;3.706;2023-09-30T06:50:00;12.52;;;6.22;;
56045;SDS011;41913;51.030;3.706;2023-09-30T06:52:32;13.10;;;6.30;;
56045;SDS011;41913;51.030;3.706;2023-09-30T06:54:59;12.25;;;5.45;;
56045;SDS011;41913;51.030;3.706;2023-09-30T06:57:25;9.32;;;5.20;;
56045;SDS011;41913;51.030;3.706;2023-09-30T06:59:51;10.30;;;5.10;;
56045;SDS011;41913;51.030;3.706;2023-09-30T07:02:16;7.13;;;4.22;;
56045;SDS011;41913;51.030;3.706;2023-09-30T07:04:42;10.43;;;4.32;;
56045;SDS011;41913;51.030;3.706;2023-09-30T07:07:10;6.70;;;4.50;;
56045;SDS011;41913;51.030;3.706;2023-09-30T07:09:36;10.90;;;5.10;;
56045;SDS011;41913;51.030;3.706;2023-09-30T07:12:02;11.15;;;4.50;;
56045;SDS011;41913;51.030;3.706;2023-09-30T07:14:29;9.23;;;4.15;;
56045;SDS011;41913;51.030;3.706;2023-09-30T07:16:56;12.98;;;5.15;;
56045;SDS011;41913;51.030;3.706;2023-09-30T07:19:22;6.57;;;3.53;;
56045;SDS011;41913;51.030;3.706;2023-09-30T07:21:48;5.97;;;3.33;;
56045;SDS011;41913;51.030;3.706;2023-09-30T07:24:14;6.63;;;3.58;;
56045;SDS011;41913;51.030;3.706;2023-09-30T07:26:40;7.80;;;3.53;;
56045;SDS011;41913;51.030;3.706;2023-09-30T07:29:05;10.05;;;3.70;;
56045;SDS011;41913;51.030;3.706;2023-09-30T07:31:35;7.65;;;3.15;;
56045;SDS011;41913;51.030;3.706;2023-09-30T07:34:01;5.60;;;3.15;;
56045;SDS011;41913;51.030;3.706;2023-09-30T07:36:27;5.18;;;3.25;;
56045;SDS011;41913;51.030;3.706;2023-09-30T07:38:53;11.20;;;3.42;;
56045;SDS011;41913;51.030;3.706;2023-09-30T07:41:19;5.90;;;2.92;;
56045;SDS011;41913;51.030;3.706;2023-09-30T07:43:51;8.90;;;3.72;;
56045;SDS011;41913;51.030;3.706;2023-09-30T07:46:17;5.80;;;2.60;;
56045;SDS011;41913;51.030;3.706;2023-09-30T07:48:42;4.38;;;2.78;;
56045;SDS011;41913;51.030;3.706;2023-09-30T07:51:08;3.53;;;2.63;;
56045;SDS011;41913;51.030;3.706;2023-09-30T07:53:38;8.35;;;3.42;;
56045;SDS011;41913;51.030;3.706;2023-09-30T07:56:05;8.68;;;2.78;;
56045;SDS011;41913;51.030;3.706;2023-09-30T07:58:31;6.07;;;3.70;;
56045;SDS011;41913;51.030;3.706;2023-09-30T08:01:01;5.07;;;2.75;;
56045;SDS011;41913;51.030;3.706;2023-09-30T08:03:27;12.07;;;2.95;;
56045;SDS011;41913;51.030;3.706;2023-09-30T08:05:52;8.80;;;3.38;;
56045;SDS011;41913;51.030;3.706;2023-09-30T08:08:18;5.10;;;2.88;;
56045;SDS011;41913;51.030;3.706;2023-09-30T08:10:45;7.75;;;2.78;;
56045;SDS011;41913;51.030;3.706;2023-09-30T08:13:10;6.45;;;3.35;;
56045;SDS011;41913;51.030;3.706;2023-09-30T08:15:36;9.23;;;3.55;;
56045;SDS011;41913;51.030;3.706;2023-09-30T08:18:05;5.47;;;3.05;;
56045;SDS011;41913;51.030;3.706;2023-09-30T08:20:33;6.72;;;3.20;;
56045;SDS011;41913;51.030;3.706;2023-09-30T08:22:59;5.97;;;3.08;;
56045;SDS011;41913;51.030;3.706;2023-09-30T08:25:25;5.82;;;2.60;;
56045;SDS011;41913;51.030;3.706;2023-09-30T08:27:51;11.10;;;3.58;;
56045;SDS011;41913;51.030;3.706;2023-09-30T08:30:17;8.43;;;3.50;;
56045;SDS011;41913;51.030;3.706;2023-09-30T08:32:45;4.95;;;3.30;;
56045;SDS011;41913;51.030;3.706;2023-09-30T08:35:11;6.22;;;3.55;;
56045;SDS011;41913;51.030;3.706;2023-09-30T08:37:40;11.35;;;3.83;;
56045;SDS011;41913;51.030;3.706;2023-09-30T08:40:09;14.13;;;4.53;;
56045;SDS011;41913;51.030;3.706;2023-09-30T08:42:39;8.77;;;4.05;;
56045;SDS011;41913;51.030;3.706;2023-09-30T08:45:05;12.25;;;4.32;;
56045;SDS011;41913;51.030;3.706;2023-09-30T08:47:35;7.30;;;3.15;;
56045;SDS011;41913;51.030;3.706;2023-09-30T08:50:01;8.07;;;3.85;;
56045;SDS011;41913;51.030;3.706;2023-09-30T08:52:35;10.65;;;4.80;;
56045;SDS011;41913;51.030;3.706;2023-09-30T08:55:08;6.65;;;3.85;;
56045;SDS011;41913;51.030;3.706;2023-09-30T08:57:45;11.77;;;4.78;;
56045;SDS011;41913;51.030;3.706;2023-09-30T09:00:14;9.27;;;4.47;;
56045;SDS011;41913;51.030;3.706;2023-09-30T09:02:41;13.50;;;4.70;;
56045;SDS011;41913;51.030;3.706;2023-09-30T09:05:09;12.00;;;4.30;;
56045;SDS011;41913;51.030;3.706;2023-09-30T09:07:36;9.75;;;4.00;;
56045;SDS011;41913;51.030;3.706;2023-09-30T09:10:11;15.98;;;4.93;;
56045;SDS011;41913;51.030;3.706;2023-09-30T09:12:41;13.88;;;4.57;;
56045;SDS011;41913;51.030;3.706;2023-09-30T09:15:11;6.68;;;3.55;;
56045;SDS011;41913;51.030;3.706;2023-09-30T09:17:47;9.30;;;4.60;;
56045;SDS011;41913;51.030;3.706;2023-09-30T09:20:19;8.45;;;3.78;;
56045;SDS011;41913;51.030;3.706;2023-09-30T09:22:50;12.80;;;4.43;;
56045;SDS011;41913;51.030;3.706;2023-09-30T09:25:21;8.35;;;4.47;;
56045;SDS011;41913;51.030;3.706;2023-09-30T09:27:50;11.85;;;4.85;;
56045;SDS011;41913;51.030;3.706;2023-09-30T09:30:19;7.82;;;4.18;;
56045;SDS011;41913;51.030;3.706;2023-09-30T09:33:03;9.35;;;4.57;;
56045;SDS011;41913;51.030;3.706;2023-09-30T09:35:32;13.35;;;4.95;;
56045;SDS011;41913;51.030;3.706;2023-09-30T09:40:32;7.47;;;4.07;;
56045;SDS011;41913;51.030;3.706;2023-09-30T09:43:04;6.05;;;3.70;;
56045;SDS011;41913;51.030;3.706;2023-09-30T09:45:32;8.65;;;4.05;;
56045;SDS011;41913;51.030;3.706;2023-09-30T09:50:29;6.82;;;3.63;;
56045;SDS011;41913;51.030;3.706;2023-09-30T09:52:58;6.97;;;4.10;;
56045;SDS011;41913;51.030;3.706;2023-09-30T09:55:25;9.35;;;3.65;;
56045;SDS011;41913;51.030;3.706;2023-09-30T09:57:52;9.02;;;3.95;;
56045;SDS011;41913;51.030;3.706;2023-09-30T10:00:21;11.55;;;3.63;;
56045;SDS011;41913;51.030;3.706;2023-09-30T10:02:49;6.10;;;3.58;;
56045;SDS011;41913;51.030;3.706;2023-09-30T10:05:17;7.13;;;3.63;;
56045;SDS011;41913;51.030;3.706;2023-09-30T10:10:20;6.60;;;3.60;;
56045;SDS011;41913;51.030;3.706;2023-09-30T10:12:48;9.80;;;3.85;;
56045;SDS011;41913;51.030;3.706;2023-09-30T10:18:05;11.70;;;4.35;;
56045;SDS011;41913;51.030;3.706;2023-09-30T10:20:38;12.13;;;4.07;;
56045;SDS011;41913;51.030;3.706;2023-09-30T10:23:28;19.70;;;4.93;;
56045;SDS011;41913;51.030;3.706;2023-09-30T10:28:39;11.15;;;4.70;;
56045;SDS011;41913;51.030;3.706;2023-09-30T10:31:19;15.82;;;4.78;;
56045;SDS011;41913;51.030;3.706;2023-09-30T10:36:34;13.07;;;4.18;;
56045;SDS011;41913;51.030;3.706;2023-09-30T10:39:17;10.77;;;4.15;;
56045;SDS011;41913;51.030;3.706;2023-09-30T10:42:11;14.73;;;5.38;;
56045;SDS011;41913;51.030;3.706;2023-09-30T10:50:59;18.88;;;5.25;;
56045;SDS011;41913;51.030;3.706;2023-09-30T10:53:49;16.88;;;4.60;;
56045;SDS011;41913;51.030;3.706;2023-09-30T10:56:17;12.00;;;4.28;;
56045;SDS011;41913;51.030;3.706;2023-09-30T11:01:11;17.23;;;5.40;;
56045;SDS011;41913;51.030;3.706;2023-09-30T11:03:39;16.73;;;4.47;;
56045;SDS011;41913;51.030;3.706;2023-09-30T11:06:05;16.02;;;5.18;;
56045;SDS011;41913;51.030;3.706;2023-09-30T11:08:32;14.52;;;4.07;;
56045;SDS011;41913;51.030;3.706;2023-09-30T11:10:59;12.40;;;4.60;;
56045;SDS011;41913;51.030;3.706;2023-09-30T11:13:32;12.23;;;4.13;;
56045;SDS011;41913;51.030;3.706;2023-09-30T11:16:04;10.18;;;4.22;;
56045;SDS011;41913;51.030;3.706;2023-09-30T11:18:30;13.82;;;4.78;;
56045;SDS011;41913;51.030;3.706;2023-09-30T11:21:12;11.05;;;4.22;;
56045;SDS011;41913;51.030;3.706;2023-09-30T11:23:38;9.65;;;4.00;;
56045;SDS011;41913;51.030;3.706;2023-09-30T11:26:06;11.55;;;4.07;;
56045;SDS011;41913;51.030;3.706;2023-09-30T11:28:36;12.45;;;4.90;;
56045;SDS011;41913;51.030;3.706;2023-09-30T11:31:08;8.27;;;4.28;;
56045;SDS011;41913;51.030;3.706;2023-09-30T11:33:51;13.05;;;4.13;;
56045;SDS011;41913;51.030;3.706;2023-09-30T11:38:45;8.38;;;4.05;;
56045;SDS011;41913;51.030;3.706;2023-09-30T11:41:12;10.48;;;4.20;;
56045;SDS011;41913;51.030;3.706;2023-09-30T11:43:39;8.63;;;3.50;;
56045;SDS011;41913;51.030;3.706;2023-09-30T11:46:24;8.80;;;3.45;;
56045;SDS011;41913;51.030;3.706;2023-09-30T11:48:59;10.98;;;4.38;;
56045;SDS011;41913;51.030;3.706;2023-09-30T11:51:27;14.23;;;4.10;;
56045;SDS011;41913;51.030;3.706;2023-09-30T11:53:53;12.07;;;4.43;;
56045;SDS011;41913;51.030;3.706;2023-09-30T11:56:21;10.07;;;3.95;;
56045;SDS011;41913;51.030;3.706;2023-09-30T11:58:52;11.10;;;3.30;;
56045;SDS011;41913;51.030;3.706;2023-09-30T12:01:19;12.07;;;3.85;;
56045;SDS011;41913;51.030;3.706;2023-09-30T12:03:48;14.75;;;3.97;;
56045;SDS011;41913;51.030;3.706;2023-09-30T12:06:14;12.70;;;4.10;;
56045;SDS011;41913;51.030;3.706;2023-09-30T12:08:41;5.78;;;3.10;;
56045;SDS011;41913;51.030;3.706;2023-09-30T12:11:07;10.48;;;3.60;;
56045;SDS011;41913;51.030;3.706;2023-09-30T12:13:38;9.35;;;2.72;;
56045;SDS011;41913;51.030;3.706;2023-09-30T12:16:04;9.73;;;2.63;;
56045;SDS011;41913;51.030;3.706;2023-09-30T12:18:30;6.78;;;2.78;;
56045;SDS011;41913;51.030;3.706;2023-09-30T12:20:55;7.05;;;2.70;;
56045;SDS011;41913;51.030;3.706;2023-09-30T12:23:21;9.98;;;3.13;;
56045;SDS011;41913;51.030;3.706;2023-09-30T12:25:47;8.57;;;2.58;;
56045;SDS011;41913;51.030;3.706;2023-09-30T12:28:13;8.38;;;2.67;;
56045;SDS011;41913;51.030;3.706;2023-09-30T12:30:40;7.65;;;2.80;;
56045;SDS011;41913;51.030;3.706;2023-09-30T12:33:07;8.98;;;3.05;;
56045;SDS011;41913;51.030;3.706;2023-09-30T12:35:33;9.35;;;2.75;;
56045;SDS011;41913;51.030;3.706;2023-09-30T12:37:59;10.75;;;2.80;;
56045;SDS011;41913;51.030;3.706;2023-09-30T12:40:25;10.13;;;2.78;;
56045;SDS011;41913;51.030;3.706;2023-09-30T12:42:50;8.23;;;2.55;;
56045;SDS011;41913;51.030;3.706;2023-09-30T12:45:16;7.60;;;2.80;;
56045;SDS011;41913;51.030;3.706;2023-09-30T12:47:43;8.48;;;3.15;;
56045;SDS011;41913;51.030;3.706;2023-09-30T12:50:12;6.75;;;2.67;;
56045;SDS011;41913;51.030;3.706;2023-09-30T12:52:38;6.72;;;1.88;;
56045;SDS011;41913;51.030;3.706;2023-09-30T12:55:04;16.10;;;3.38;;
56045;SDS011;41913;51.030;3.706;2023-09-30T12:57:30;12.77;;;2.92;;
56045;SDS011;41913;51.030;3.706;2023-09-30T12:59:57;15.00;;;4.32;;
56045;SDS011;41913;51.030;3.706;2023-09-30T13:02:23;7.60;;;2.33;;
56045;SDS011;41913;51.030;3.706;2023-09-30T13:04:48;12.90;;;2.95;;
56045;SDS011;41913;51.030;3.706;2023-09-30T13:07:14;7.95;;;3.17;;
56045;SDS011;41913;51.030;3.706;2023-09-30T13:09:41;10.15;;;3.25;;
56045;SDS011;41913;51.030;3.706;2023-09-30T13:12:07;9.88;;;2.78;;
56045;SDS011;41913;51.030;3.706;2023-09-30T13:14:33;9.40;;;3.15;;
56045;SDS011;41913;51.030;3.706;2023-09-30T13:16:59;6.63;;;2.15;;
56045;SDS011;41913;51.030;3.706;2023-09-30T13:19:26;13.10;;;3.53;;
56045;SDS011;41913;51.030;3.706;2023-09-30T13:21:52;7.25;;;2.80;;
56045;SDS011;41913;51.030;3.706;2023-09-30T13:24:18;5.82;;;1.92;;
56045;SDS011;41913;51.030;3.706;2023-09-30T13:26:44;6.47;;;2.35;;
56045;SDS011;41913;51.030;3.706;2023-09-30T13:29:11;6.50;;;2.17;;
56045;SDS011;41913;51.030;3.706;2023-09-30T13:31:39;7.68;;;2.67;;
56045;SDS011;41913;51.030;3.706;2023-09-30T13:34:05;6.15;;;2.20;;
56045;SDS011;41913;51.030;3.706;2023-09-30T13:36:31;5.55;;;2.47;;
56045;SDS011;41913;51.030;3.706;2023-09-30T13:38:57;11.73;;;2.58;;
56045;SDS011;41913;51.030;3.706;2023-09-30T13:41:23;5.03;;;2.65;;
56045;SDS011;41913;51.030;3.706;2023-09-30T13:43:49;11.05;;;2.40;;
56045;SDS011;41913;51.030;3.706;2023-09-30T13:46:15;7.15;;;1.92;;
56045;SDS011;41913;51.030;3.706;2023-09-30T13:48:41;6.10;;;2.78;;
56045;SDS011;41913;51.030;3.706;2023-09-30T13:51:10;9.65;;;2.75;;
56045;SDS011;41913;51.030;3.706;2023-09-30T13:53:36;4.70;;;2.30;;
56045;SDS011;41913;51.030;3.706;2023-09-30T13:56:02;11.90;;;2.95;;
56045;SDS011;41913;51.030;3.706;2023-09-30T13:58:31;7.68;;;2.55;;
56045;SDS011;41913;51.030;3.706;2023-09-30T14:00:57;8.82;;;2.55;;
56045;SDS011;41913;51.030;3.706;2023-09-30T14:03:23;10.10;;;2.92;;
56045;SDS011;41913;51.030;3.706;2023-09-30T14:05:51;7.13;;;2.42;;
56045;SDS011;41913;51.030;3.706;2023-09-30T14:08:20;8.18;;;2.20;;
56045;SDS011;41913;51.030;3.706;2023-09-30T14:10:46;13.48;;;3.17;;
56045;SDS011;41913;51.030;3.706;2023-09-30T14:13:12;9.90;;;2.88;;
56045;SDS011;41913;51.030;3.706;2023-09-30T14:15:41;9.50;;;3.42;;
56045;SDS011;41913;51.030;3.706;2023-09-30T14:18:06;6.78;;;2.15;;
56045;SDS011;41913;51.030;3.706;2023-09-30T14:20:33;13.13;;;3.78;;
56045;SDS011;41913;51.030;3.706;2023-09-30T14:22:58;9.85;;;2.47;;
56045;SDS011;41913;51.030;3.706;2023-09-30T14:25:24;10.68;;;2.00;;
56045;SDS011;41913;51.030;3.706;2023-09-30T14:27:51;15.98;;;3.08;;
56045;SDS011;41913;51.030;3.706;2023-09-30T14:30:17;7.07;;;2.30;;
56045;SDS011;41913;51.030;3.706;2023-09-30T14:32:45;7.97;;;2.75;;
56045;SDS011;41913;51.030;3.706;2023-09-30T14:35:10;7.32;;;3.25;;
56045;SDS011;41913;51.030;3.706;2023-09-30T14:37:36;6.85;;;2.47;;
56045;SDS011;41913;51.030;3.706;2023-09-30T14:40:02;8.63;;;2.60;;
56045;SDS011;41913;51.030;3.706;2023-09-30T14:42:30;5.05;;;2.55;;
56045;SDS011;41913;51.030;3.706;2023-09-30T14:44:56;8.82;;;2.80;;
56045;SDS011;41913;51.030;3.706;2023-09-30T14:47:22;6.72;;;2.75;;
56045;SDS011;41913;51.030;3.706;2023-09-30T14:49:48;8.80;;;2.88;;
56045;SDS011;41913;51.030;3.706;2023-09-30T14:52:16;7.82;;;2.88;;
56045;SDS011;41913;51.030;3.706;2023-09-30T14:54:41;5.10;;;2.08;;
56045;SDS011;41913;51.030;3.706;2023-09-30T14:57:07;7.75;;;2.40;;
56045;SDS011;41913;51.030;3.706;2023-09-30T14:59:35;8.48;;;2.25;;
56045;SDS011;41913;51.030;3.706;2023-09-30T15:02:00;8.23;;;2.40;;
56045;SDS011;41913;51.030;3.706;2023-09-30T15:04:26;10.02;;;2.60;;
56045;SDS011;41913;51.030;3.706;2023-09-30T15:06:53;6.63;;;2.53;;
56045;SDS011;41913;51.030;3.706;2023-09-30T15:09:20;5.72;;;2.80;;
56045;SDS011;41913;51.030;3.706;2023-09-30T15:11:45;11.70;;;3.08;;
56045;SDS011;41913;51.030;3.706;2023-09-30T15:14:11;6.65;;;2.15;;